Detall de PIREP

Printer-friendly versionPDF version

[2009/03/29 09:48:00]
Flight IATA:CT0001
Pilot Number:011
Company ICAO:CAT
Aircraft Type:F28/A
PAX:85
Departing Airport: LERS
Destination Airport: LEAL
Alternate Airport:LEPA
Online: VATSIM
Route:EBROX B28 VLC
Flight Level:FL220
No Slew and time accel
No pause
Crash detect
Detect pilot in Cockpit between each 30 and 45 minutes
09:48 Zero fuel Weight: 59787 Lbs, Fuel Weight: 9135 Lbs
09:48 VATSIM:LERS 290900Z 26003KT 200V300 9999 FEW012 OVC035 10/05 Q1002
09:48 VATSIM:LEAL 290900Z VRB02KT 9999 FEW008 SCT020 OVC040 13/12 Q1001 NOSIG
09:48 Parking Brakes off
09:59 Take-off
09:59 Take off Weight: 68385 Lbs
09:59 Wind: 294 @ 003 Knots Heading: 249
09:59 POS N41 08 48 E001 09 53
09:59 Gear Up: 161 Knots
09:59 Flaps:2 at 161 Knots
10:02 Flaps:1 at 223 Knots
10:02 Flaps:0 at 231 Knots
10:12 TOC
10:12 Fuel Weight: 7028 Lb
10:14 Wind:340@021 Knots Heading: 22
8 Ground Speed: 431 Knots Altitude 21683 ft
10:23 TOD
10:23 Fuel Weight: 6037 Lb
10:36 Flaps:1 at 224 Knots
10:36 Flaps:2 at 204 Knots
10:37 Flaps:3 at 181 Knots
10:40 Flaps:4 at 155 Knots
10:40 Gear Down: 154 Knots
10:42 Flaps:5 at 146 Knots
10:43 TouchDown:Rate -186 ft/min Speed: 115 Knots
10:43 VATSIM:LEAL 291000Z 09012KT 9999 FEW008 SCT020 OVC040 13/10 Q1002 NOSIG
10:43 Land
10:43 Wind:093@012 Knots
10:43 Heading: 103
10:43 Flight Duration: 00:44
10:43 Landing Weight: 64849 Lbs
10:43 POS N38 16 57 W000 33 31
10:51 Parking brakes on
10:51 Block to Block Duration: 01:03
10:51 Final Fuel: 4620 Lbls
10:51 Spent Fuel: 4515 Lbls
10:51 Flight Length: 28 NM
10:51 TOD Land Length: 00 NM

Exportar CSV

Powered by Drupal - Modified by Danger4k